createdAt,value
2018-05-31T00:00:11.998Z,86.80
2018-05-31T00:02:38.598Z,87.80
2018-05-31T00:05:05.226Z,88.30
2018-05-31T00:07:39.170Z,87.80
2018-05-31T00:10:05.775Z,87.80
2018-05-31T00:12:32.369Z,87.80
2018-05-31T00:14:58.985Z,87.30
2018-05-31T00:17:25.554Z,87.40
2018-05-31T00:19:52.165Z,87.40
2018-05-31T00:22:18.808Z,87.40
2018-05-31T00:24:45.412Z,87.20
2018-05-31T00:27:12.016Z,87.30
2018-05-31T00:29:38.645Z,87.20
2018-05-31T00:32:05.260Z,87.20
2018-05-31T00:34:31.873Z,87.00
2018-05-31T00:36:58.453Z,87.40
2018-05-31T00:39:25.073Z,87.40
2018-05-31T00:41:51.642Z,87.10
2018-05-31T00:44:18.670Z,86.60
2018-05-31T00:46:45.360Z,86.60
2018-05-31T00:49:11.937Z,86.30
2018-05-31T00:51:38.585Z,86.50
2018-05-31T00:54:05.192Z,86.80
2018-05-31T00:56:32.169Z,87.40
2018-05-31T00:58:58.741Z,87.40
2018-05-31T01:01:25.361Z,87.50
2018-05-31T01:03:51.952Z,87.20
2018-05-31T01:06:18.593Z,87.30
2018-05-31T01:08:45.265Z,87.10
2018-05-31T01:11:12.220Z,87.10
2018-05-31T01:13:38.833Z,87.10
2018-05-31T01:16:05.432Z,87.10
2018-05-31T01:18:32.385Z,86.60
2018-05-31T01:20:59.372Z,87.10
2018-05-31T01:23:25.950Z,87.20
2018-05-31T01:25:52.582Z,87.40
2018-05-31T01:28:19.235Z,87.40
2018-05-31T01:30:45.929Z,87.40
2018-05-31T01:33:12.945Z,87.90
2018-05-31T01:35:39.510Z,87.90
2018-05-31T01:38:18.273Z,88.30
2018-05-31T01:40:45.289Z,89.10
2018-05-31T01:43:11.905Z,89.10
2018-05-31T01:45:38.542Z,88.50
2018-05-31T01:48:05.486Z,88.70
2018-05-31T01:50:32.088Z,88.70
2018-05-31T01:52:58.648Z,88.20
2018-05-31T01:55:25.254Z,87.90
2018-05-31T01:57:52.222Z,88.60
2018-05-31T02:00:18.849Z,88.60
2018-05-31T02:02:45.878Z,88.30
2018-05-31T02:05:12.445Z,88.30
2018-05-31T02:07:39.429Z,89.10
2018-05-31T02:10:06.427Z,89.40
2018-05-31T02:12:33.037Z,89.40
2018-05-31T02:14:59.657Z,89.60
2018-05-31T02:17:26.238Z,89.10
2018-05-31T02:19:53.177Z,89.20
2018-05-31T02:22:19.784Z,89.20
2018-05-31T02:24:46.361Z,89.70
2018-05-31T02:27:12.953Z,89.80
2018-05-31T02:29:39.541Z,88.80
2018-05-31T02:32:06.554Z,89.30
2018-05-31T02:34:33.118Z,89.30
2018-05-31T02:36:59.725Z,88.70
2018-05-31T02:39:26.368Z,88.70
2018-05-31T02:41:52.981Z,89.00
2018-05-31T02:44:19.569Z,88.20
2018-05-31T02:46:46.174Z,88.60
2018-05-31T02:49:12.737Z,88.80
2018-05-31T02:51:39.338Z,89.30
2018-05-31T02:54:05.939Z,88.90
2018-05-31T02:56:32.548Z,88.80
2018-05-31T02:58:59.149Z,89.30
2018-05-31T03:01:25.729Z,90.20
2018-05-31T03:03:52.342Z,90.40
2018-05-31T03:06:18.945Z,90.50
2018-05-31T03:08:45.953Z,90.70
2018-05-31T03:11:12.557Z,90.70
2018-05-31T03:13:39.155Z,90.80
2018-05-31T03:16:06.142Z,89.90
2018-05-31T03:18:32.704Z,89.90
2018-05-31T03:20:59.308Z,89.40
2018-05-31T03:23:25.922Z,89.10
2018-05-31T03:25:52.507Z,89.30
2018-05-31T03:28:19.116Z,89.10
2018-05-31T03:30:45.711Z,88.60
2018-05-31T03:33:12.364Z,89.00
2018-05-31T03:35:38.970Z,88.70
2018-05-31T03:38:05.551Z,88.90
2018-05-31T03:40:32.525Z,89.30
2018-05-31T03:42:59.098Z,89.30
2018-05-31T03:45:25.708Z,89.70
2018-05-31T03:47:52.297Z,89.80
2018-05-31T03:50:18.873Z,89.80
2018-05-31T03:52:45.489Z,89.50
2018-05-31T03:55:12.056Z,89.60
2018-05-31T03:57:38.641Z,89.10
2018-05-31T04:00:06.173Z,89.10
2018-05-31T04:02:32.740Z,88.70
2018-05-31T04:04:59.368Z,89.00
2018-05-31T04:07:26.329Z,88.80
2018-05-31T04:09:53.298Z,88.30
2018-05-31T04:12:20.273Z,88.20
2018-05-31T04:14:47.214Z,88.60
2018-05-31T04:17:13.852Z,88.60
2018-05-31T04:19:40.448Z,88.30
2018-05-31T04:22:07.425Z,89.70
2018-05-31T04:24:34.392Z,90.30
2018-05-31T04:27:00.955Z,90.30
2018-05-31T04:29:27.916Z,91.00
2018-05-31T04:31:54.518Z,91.00
2018-05-31T04:34:21.125Z,91.00
2018-05-31T04:36:47.741Z,90.70
2018-05-31T04:39:14.329Z,90.40
2018-05-31T04:41:40.933Z,89.90
2018-05-31T04:44:07.869Z,90.10
2018-05-31T04:46:34.493Z,90.10
2018-05-31T04:49:01.109Z,90.00
2018-05-31T04:51:27.686Z,89.90
2018-05-31T04:53:54.662Z,88.80
2018-05-31T04:56:21.593Z,89.10
2018-05-31T04:58:48.196Z,89.10
2018-05-31T05:01:14.830Z,88.60
2018-05-31T05:03:41.770Z,87.50
2018-05-31T05:06:08.374Z,87.50
2018-05-31T05:08:35.304Z,87.40
2018-05-31T05:11:01.919Z,87.40
2018-05-31T05:13:28.533Z,87.30
2018-05-31T05:15:55.502Z,86.50
2018-05-31T05:18:22.109Z,86.60
2018-05-31T05:20:48.677Z,86.50
2018-05-31T05:23:15.308Z,84.70
2018-05-31T05:25:42.276Z,83.50
2018-05-31T05:28:09.205Z,82.50
2018-05-31T05:30:35.897Z,82.50
2018-05-31T05:33:02.542Z,81.90
2018-05-31T05:35:29.233Z,80.80
2018-05-31T05:37:56.208Z,80.10
2018-05-31T05:40:23.150Z,79.90
2018-05-31T05:42:49.741Z,79.90
2018-05-31T05:45:16.694Z,79.10
2018-05-31T05:47:43.676Z,79.70
2018-05-31T05:50:10.370Z,79.70
2018-05-31T05:52:37.305Z,78.50
2018-05-31T05:55:04.284Z,78.60
2018-05-31T05:57:30.845Z,78.60
2018-05-31T05:59:57.457Z,77.90
2018-05-31T06:02:24.054Z,77.60
2018-05-31T06:04:50.993Z,76.60
2018-05-31T06:07:17.609Z,76.70
2018-05-31T06:09:44.242Z,76.80
2018-05-31T06:12:11.241Z,76.00
2018-05-31T06:14:37.849Z,76.00
2018-05-31T06:17:04.421Z,75.80
2018-05-31T06:19:31.034Z,76.00
2018-05-31T06:21:57.622Z,76.00
2018-05-31T06:24:24.230Z,74.80
2018-05-31T06:26:51.199Z,77.20
2018-05-31T06:29:17.765Z,77.20
2018-05-31T06:31:44.379Z,77.00
2018-05-31T06:34:10.957Z,77.20
2018-05-31T06:36:37.956Z,75.10
2018-05-31T06:39:05.059Z,73.60
2018-05-31T06:41:31.627Z,73.60
2018-05-31T06:43:58.212Z,73.40
2018-05-31T06:46:24.778Z,73.20
2018-05-31T06:48:51.377Z,72.40
2018-05-31T06:51:17.977Z,72.70
2018-05-31T06:53:44.541Z,71.30
2018-05-31T06:56:11.125Z,72.10
2018-05-31T06:58:37.689Z,72.20
2018-05-31T07:01:04.305Z,72.30
2018-05-31T07:03:30.901Z,72.50
2018-05-31T07:05:57.483Z,71.90
2018-05-31T07:08:24.446Z,72.60
2018-05-31T07:10:57.852Z,72.60
2018-05-31T07:13:24.443Z,72.00
2018-05-31T07:15:51.362Z,71.80
2018-05-31T07:18:17.909Z,70.40
2018-05-31T07:20:44.825Z,71.10
2018-05-31T07:23:11.778Z,70.40
2018-05-31T07:25:45.505Z,70.40
2018-05-31T07:28:12.129Z,71.20
2018-05-31T07:30:38.689Z,71.00
2018-05-31T07:33:05.306Z,70.70
2018-05-31T07:35:38.798Z,72.20
2018-05-31T07:38:05.445Z,70.50
2018-05-31T07:40:32.040Z,71.20
2018-05-31T07:42:58.601Z,70.70
2018-05-31T07:45:25.201Z,71.00
2018-05-31T07:47:51.773Z,70.70
2018-05-31T07:50:18.382Z,71.20
2018-05-31T07:52:44.995Z,70.70
2018-05-31T07:55:11.564Z,71.00
2018-05-31T07:57:38.172Z,71.40
2018-05-31T08:00:05.167Z,72.60
2018-05-31T08:02:31.781Z,72.60
2018-05-31T08:04:58.389Z,72.20
2018-05-31T08:07:24.950Z,71.40
2018-05-31T08:09:51.540Z,72.50
2018-05-31T08:12:18.111Z,71.20
2018-05-31T08:14:44.697Z,70.60
2018-05-31T08:17:11.689Z,70.90
2018-05-31T08:19:38.270Z,70.90
2018-05-31T08:22:04.898Z,72.20
2018-05-31T08:24:31.839Z,71.20
2018-05-31T08:26:58.438Z,71.20
2018-05-31T08:29:25.413Z,71.40
2018-05-31T08:31:58.991Z,71.40
2018-05-31T08:34:25.589Z,70.40
2018-05-31T08:36:52.242Z,70.70
2018-05-31T08:39:19.277Z,70.60
2018-05-31T08:41:45.927Z,70.60
2018-05-31T08:44:12.712Z,71.80
2018-05-31T08:46:39.271Z,71.50
2018-05-31T08:49:05.845Z,71.30
2018-05-31T08:51:32.472Z,70.40
2018-05-31T08:53:59.020Z,71.60
2018-05-31T08:56:25.614Z,71.30
2018-05-31T08:58:52.226Z,71.80
2018-05-31T09:01:18.793Z,71.00
2018-05-31T09:03:45.388Z,71.70
2018-05-31T09:06:11.975Z,70.60
2018-05-31T09:08:38.973Z,71.60
2018-05-31T09:11:05.570Z,71.60
2018-05-31T09:13:32.139Z,71.10
2018-05-31T09:15:58.769Z,70.40
2018-05-31T09:18:25.317Z,71.00
2018-05-31T09:20:51.912Z,70.40
2018-05-31T09:23:18.523Z,69.40
2018-05-31T09:25:45.090Z,69.70
2018-05-31T09:28:11.700Z,70.10
2018-05-31T09:30:38.258Z,70.70
2018-05-31T09:33:04.853Z,70.70
2018-05-31T09:35:31.814Z,69.00
2018-05-31T09:37:58.746Z,68.80
2018-05-31T09:40:25.345Z,68.70
2018-05-31T09:42:51.890Z,67.30
2018-05-31T09:45:18.539Z,68.70
2018-05-31T09:47:45.150Z,69.60
2018-05-31T09:50:11.709Z,68.40
2018-05-31T09:52:38.309Z,69.10
2018-05-31T09:55:04.858Z,68.60
2018-05-31T09:57:31.437Z,69.10
2018-05-31T09:59:58.034Z,68.60
2018-05-31T10:02:24.965Z,67.20
2018-05-31T10:04:51.566Z,67.20
2018-05-31T10:07:18.129Z,68.20
2018-05-31T10:09:45.101Z,68.40
2018-05-31T10:12:11.698Z,68.40
2018-05-31T10:14:38.248Z,69.70
2018-05-31T10:17:04.906Z,69.60
2018-05-31T10:19:31.476Z,69.40
2018-05-31T10:21:58.069Z,69.50
2018-05-31T10:24:24.679Z,70.10
2018-05-31T10:26:51.253Z,70.50
2018-05-31T10:29:17.844Z,69.60
2018-05-31T10:31:44.426Z,71.00
2018-05-31T10:34:11.386Z,69.00
2018-05-31T10:36:38.010Z,69.00
2018-05-31T10:39:05.573Z,70.20
2018-05-31T10:41:32.173Z,68.30
2018-05-31T10:43:58.735Z,67.90
2018-05-31T10:46:25.389Z,67.80
2018-05-31T10:48:51.993Z,67.90
2018-05-31T10:51:18.926Z,66.30
2018-05-31T10:53:45.643Z,66.30
2018-05-31T10:56:12.210Z,65.40
2018-05-31T10:58:38.813Z,64.80
2018-05-31T11:01:05.422Z,65.20
2018-05-31T11:03:32.005Z,66.80
2018-05-31T11:05:58.605Z,65.90
2018-05-31T11:08:25.172Z,65.50
2018-05-31T11:10:51.769Z,64.00
2018-05-31T11:13:18.386Z,63.30
2018-05-31T11:15:44.957Z,64.10
2018-05-31T11:18:18.989Z,65.60
2018-05-31T11:20:45.553Z,65.60
2018-05-31T11:23:12.521Z,65.80
2018-05-31T11:25:39.089Z,65.80
2018-05-31T11:28:06.021Z,61.60
2018-05-31T11:30:32.625Z,61.60
2018-05-31T11:32:59.565Z,62.40
2018-05-31T11:35:26.161Z,62.40
2018-05-31T11:37:52.730Z,65.10
2018-05-31T11:40:19.314Z,62.60
2018-05-31T11:42:45.921Z,64.50
2018-05-31T11:45:12.921Z,64.80
2018-05-31T11:47:39.521Z,64.80
2018-05-31T11:50:06.105Z,63.70
2018-05-31T11:52:33.086Z,62.10
2018-05-31T11:55:00.057Z,60.80
2018-05-31T11:57:26.620Z,60.80
2018-05-31T11:59:53.238Z,59.60
2018-05-31T12:02:19.794Z,61.20
2018-05-31T12:04:46.399Z,63.00
2018-05-31T12:07:13.037Z,63.00
2018-05-31T12:09:39.603Z,62.70
2018-05-31T12:12:06.227Z,61.10
2018-05-31T12:14:32.811Z,58.90
2018-05-31T12:16:59.425Z,60.00
2018-05-31T12:19:25.990Z,61.70
2018-05-31T12:21:52.581Z,61.50
2018-05-31T12:24:19.176Z,60.50
2018-05-31T12:26:46.101Z,58.20
2018-05-31T12:29:12.734Z,58.20
2018-05-31T12:31:39.294Z,60.40
2018-05-31T12:34:05.889Z,59.10
2018-05-31T12:36:32.489Z,60.40
2018-05-31T12:38:59.421Z,60.20
2018-05-31T12:41:26.025Z,60.20
2018-05-31T12:43:52.949Z,58.80
2018-05-31T12:46:19.582Z,58.80
2018-05-31T12:48:46.186Z,59.40
2018-05-31T12:51:12.754Z,59.30
2018-05-31T12:53:39.398Z,60.30
2018-05-31T12:56:05.946Z,60.20
2018-05-31T12:58:32.573Z,60.50
2018-05-31T13:00:59.170Z,62.30
2018-05-31T13:03:25.744Z,61.90
2018-05-31T13:05:52.403Z,60.60
2018-05-31T13:08:18.950Z,61.10
2018-05-31T13:10:46.475Z,59.40
2018-05-31T13:13:13.078Z,60.00
2018-05-31T13:15:39.668Z,60.40
2018-05-31T13:18:06.293Z,60.60
2018-05-31T13:20:32.853Z,59.00
2018-05-31T13:22:59.492Z,59.60
2018-05-31T13:25:26.113Z,59.50
2018-05-31T13:27:52.694Z,57.10
2018-05-31T13:30:19.661Z,57.80
2018-05-31T13:32:46.618Z,58.00
2018-05-31T13:35:13.245Z,58.10
2018-05-31T13:37:40.230Z,56.90
2018-05-31T13:40:06.838Z,56.90
2018-05-31T13:42:33.445Z,58.90
2018-05-31T13:45:00.005Z,58.50
2018-05-31T13:47:33.712Z,57.70
2018-05-31T13:50:00.278Z,57.60
2018-05-31T13:52:26.892Z,57.50
2018-05-31T13:54:53.873Z,57.90
2018-05-31T13:57:20.809Z,57.30
2018-05-31T13:59:47.401Z,57.30
2018-05-31T14:02:14.331Z,59.10
2018-05-31T14:04:40.937Z,59.10
2018-05-31T14:07:07.545Z,58.30
2018-05-31T14:09:34.169Z,55.40
2018-05-31T14:12:01.154Z,56.70
2018-05-31T14:14:27.717Z,56.70
2018-05-31T14:16:54.338Z,58.70
2018-05-31T14:19:20.936Z,59.70
2018-05-31T14:21:47.870Z,59.20
2018-05-31T14:24:14.477Z,59.20
2018-05-31T14:26:41.061Z,58.20
2018-05-31T14:29:07.738Z,58.00
2018-05-31T14:31:34.346Z,55.70
2018-05-31T14:34:01.295Z,56.20
2018-05-31T14:36:27.890Z,56.40
2018-05-31T14:38:54.450Z,57.90
2018-05-31T14:41:21.081Z,55.90
2018-05-31T14:43:48.058Z,58.00
2018-05-31T14:46:14.651Z,58.00
2018-05-31T14:48:41.241Z,57.30
2018-05-31T14:51:07.798Z,57.20
2018-05-31T14:53:34.409Z,59.20
2018-05-31T14:56:01.341Z,58.60
2018-05-31T14:58:27.969Z,58.60
2018-05-31T15:00:54.569Z,58.30
2018-05-31T15:03:21.134Z,58.10
2018-05-31T15:05:47.753Z,57.50
2018-05-31T15:08:14.362Z,58.40
2018-05-31T15:10:41.336Z,55.00
2018-05-31T15:13:08.329Z,52.70
2018-05-31T15:15:34.885Z,52.70
2018-05-31T15:18:01.497Z,54.40
2018-05-31T15:20:28.062Z,53.50
2018-05-31T15:22:54.664Z,52.00
2018-05-31T15:25:21.278Z,53.40
2018-05-31T15:27:47.846Z,54.00
2018-05-31T15:30:14.469Z,52.50
2018-05-31T15:32:41.037Z,52.80
2018-05-31T15:35:07.637Z,54.30
2018-05-31T15:37:34.232Z,54.40
2018-05-31T15:40:00.780Z,55.10
2018-05-31T15:42:27.747Z,55.10
2018-05-31T15:45:01.250Z,55.10
2018-05-31T15:47:27.881Z,55.30
2018-05-31T15:49:54.474Z,56.40
2018-05-31T15:54:54.490Z,58.20
2018-05-31T15:57:21.073Z,58.60
2018-05-31T15:59:47.689Z,61.90
2018-05-31T16:02:14.690Z,65.60
2018-05-31T16:04:41.265Z,65.60
2018-05-31T16:07:07.870Z,67.10
2018-05-31T16:09:34.818Z,68.50
2018-05-31T16:12:01.442Z,68.50
2018-05-31T16:14:28.051Z,68.30
2018-05-31T16:16:54.633Z,67.50
2018-05-31T16:19:21.645Z,68.50
2018-05-31T16:21:48.266Z,68.50
2018-05-31T16:24:14.876Z,67.80
2018-05-31T16:26:41.509Z,68.60
2018-05-31T16:29:08.078Z,70.10
2018-05-31T16:31:34.702Z,73.40
2018-05-31T16:34:01.671Z,77.80
2018-05-31T16:36:28.665Z,80.10
2018-05-31T16:38:55.262Z,80.10
2018-05-31T16:41:21.832Z,80.80
2018-05-31T16:43:48.789Z,82.70
2018-05-31T16:46:15.757Z,84.80
2018-05-31T16:48:42.378Z,84.80
2018-05-31T16:51:08.939Z,84.90
2018-05-31T16:53:35.530Z,85.80
2018-05-31T16:56:02.137Z,85.80
2018-05-31T16:58:29.074Z,87.50
2018-05-31T17:00:55.673Z,87.50
2018-05-31T17:03:22.609Z,86.40
2018-05-31T17:05:49.205Z,86.40
2018-05-31T17:08:16.189Z,84.60
2018-05-31T17:10:42.753Z,84.60
2018-05-31T17:13:09.353Z,83.90
2018-05-31T17:15:35.917Z,83.30
2018-05-31T17:18:02.518Z,83.20
2018-05-31T17:20:29.569Z,81.70
2018-05-31T17:22:56.137Z,81.70
2018-05-31T17:25:23.110Z,84.60
2018-05-31T17:27:50.033Z,83.60
2018-05-31T17:30:16.626Z,83.60
2018-05-31T17:32:43.589Z,82.70
2018-05-31T17:35:10.530Z,76.20
2018-05-31T17:37:37.125Z,76.20
2018-05-31T17:40:03.690Z,72.20
2018-05-31T17:42:30.662Z,77.10
2018-05-31T17:44:57.628Z,78.20
2018-05-31T17:47:24.177Z,78.20
2018-05-31T17:49:51.537Z,79.70
2018-05-31T17:52:18.124Z,82.80
2018-05-31T17:54:44.710Z,82.00
2018-05-31T17:57:11.314Z,81.40
2018-05-31T17:59:38.962Z,79.70
2018-05-31T18:02:05.630Z,79.70
2018-05-31T18:04:32.246Z,80.10
2018-05-31T18:06:58.813Z,80.50
2018-05-31T18:09:25.801Z,82.30
2018-05-31T18:11:52.730Z,84.20
2018-05-31T18:14:19.333Z,84.20
2018-05-31T18:16:45.946Z,84.90
2018-05-31T18:19:12.514Z,84.30
2018-05-31T18:21:39.118Z,83.30
2018-05-31T18:24:05.680Z,83.70
2018-05-31T18:26:32.289Z,83.80
2018-05-31T18:28:58.890Z,83.60
2018-05-31T18:31:25.825Z,82.30
2018-05-31T18:33:52.434Z,82.30
2018-05-31T18:36:19.006Z,81.60
2018-05-31T18:38:45.610Z,81.40
2018-05-31T18:41:12.211Z,81.10
2018-05-31T18:43:38.787Z,81.40
2018-05-31T18:46:05.945Z,80.50
2018-05-31T18:48:32.586Z,80.40
2018-05-31T18:50:59.587Z,78.20
2018-05-31T18:53:26.184Z,78.20
2018-05-31T18:55:52.782Z,78.50
2018-05-31T18:58:19.754Z,78.70
2018-05-31T19:00:46.701Z,78.50
2018-05-31T19:03:13.294Z,78.50
2018-05-31T19:05:39.894Z,78.50
2018-05-31T19:08:06.473Z,78.40
2018-05-31T19:10:33.094Z,78.20
2018-05-31T19:13:05.766Z,78.40
2018-05-31T19:15:32.767Z,77.50
2018-05-31T19:17:59.349Z,77.50
2018-05-31T19:20:25.976Z,79.50
2018-05-31T19:22:52.545Z,80.60
2018-05-31T19:25:21.051Z,81.00
2018-05-31T19:27:47.663Z,81.00
2018-05-31T19:30:20.400Z,79.80
2018-05-31T19:32:47.068Z,78.50
2018-05-31T19:35:19.606Z,78.40
2018-05-31T19:37:46.230Z,79.20
2018-05-31T19:40:12.810Z,79.60
2018-05-31T19:42:45.383Z,80.10
2018-05-31T19:45:12.038Z,80.70
2018-05-31T19:47:39.006Z,81.60
2018-05-31T19:50:06.046Z,82.10
2018-05-31T19:55:33.910Z,83.80
2018-05-31T19:58:07.023Z,83.70
2018-05-31T20:00:39.989Z,84.20
2018-05-31T20:03:12.645Z,84.20
2018-05-31T20:05:40.501Z,82.10
2018-05-31T20:08:07.130Z,82.10
2018-05-31T20:10:33.737Z,81.70
2018-05-31T20:13:00.301Z,82.70
2018-05-31T20:15:26.908Z,81.50
2018-05-31T20:17:53.476Z,82.30
2018-05-31T20:20:20.073Z,80.00
2018-05-31T20:22:46.673Z,80.30
2018-05-31T20:25:13.253Z,79.70
2018-05-31T20:27:39.856Z,79.50
2018-05-31T20:30:06.474Z,79.10
2018-05-31T20:32:33.088Z,79.60
2018-05-31T20:34:59.707Z,81.50
2018-05-31T20:37:26.274Z,82.10
2018-05-31T20:39:52.878Z,81.50
2018-05-31T20:42:19.807Z,81.70
2018-05-31T20:44:46.423Z,81.70
2018-05-31T20:47:13.037Z,81.70
2018-05-31T20:49:39.601Z,81.70
2018-05-31T20:52:06.243Z,82.10
2018-05-31T20:54:32.794Z,82.30
2018-05-31T20:56:59.385Z,83.20
2018-05-31T20:59:25.982Z,83.30
2018-05-31T21:01:52.913Z,82.60
2018-05-31T21:04:19.514Z,82.60
2018-05-31T21:06:46.081Z,82.70
2018-05-31T21:09:12.691Z,82.90
2018-05-31T21:11:39.289Z,83.30
2018-05-31T21:14:05.873Z,83.40
2018-05-31T21:16:32.469Z,84.10
2018-05-31T21:18:59.042Z,84.00
2018-05-31T21:21:25.642Z,84.00
2018-05-31T21:23:52.234Z,84.00
2018-05-31T21:26:18.812Z,83.90
2018-05-31T21:28:45.425Z,83.50
2018-05-31T21:31:11.990Z,83.40
2018-05-31T21:33:38.593Z,84.00
2018-05-31T21:36:05.208Z,84.20
2018-05-31T21:38:31.772Z,84.50
2018-05-31T21:40:58.377Z,84.20
2018-05-31T21:43:24.951Z,84.00
2018-05-31T21:45:51.550Z,84.50
2018-05-31T21:48:18.160Z,84.70
2018-05-31T21:50:44.805Z,84.90
2018-05-31T21:53:11.411Z,85.50
2018-05-31T21:55:38.340Z,85.70
2018-05-31T21:58:05.009Z,85.70
2018-05-31T22:00:37.554Z,86.00
2018-05-31T22:03:04.146Z,86.60
2018-05-31T22:05:30.738Z,86.90
2018-05-31T22:07:57.313Z,86.90
2018-05-31T22:10:24.279Z,88.90
2018-05-31T22:12:51.273Z,89.90
2018-05-31T22:15:17.877Z,89.90
2018-05-31T22:17:44.536Z,90.90
2018-05-31T22:20:11.110Z,91.10
2018-05-31T22:22:37.702Z,90.50
2018-05-31T22:25:04.713Z,88.40
2018-05-31T22:27:31.278Z,88.40
2018-05-31T22:29:57.873Z,87.90
2018-05-31T22:32:24.453Z,87.30
2018-05-31T22:34:51.410Z,87.00
2018-05-31T22:37:18.374Z,87.00
2018-05-31T22:39:45.324Z,87.10
2018-05-31T22:42:11.920Z,87.10
2018-05-31T22:44:38.840Z,87.10
2018-05-31T22:47:05.428Z,87.10
2018-05-31T22:49:32.033Z,86.30
2018-05-31T22:51:58.617Z,86.40
2018-05-31T22:54:25.227Z,86.40
2018-05-31T22:56:52.157Z,86.10
2018-05-31T22:59:18.754Z,86.10
2018-05-31T23:01:45.745Z,85.50
2018-05-31T23:04:12.309Z,85.50
2018-05-31T23:06:38.905Z,85.90
2018-05-31T23:09:05.548Z,86.60
2018-05-31T23:11:32.151Z,86.90
2018-05-31T23:13:58.737Z,86.80
2018-05-31T23:16:25.301Z,86.70
2018-05-31T23:18:51.898Z,86.00
2018-05-31T23:21:18.458Z,86.40
2018-05-31T23:23:45.053Z,86.60
2018-05-31T23:26:11.649Z,87.10
2018-05-31T23:28:38.217Z,87.10
2018-05-31T23:31:04.837Z,87.60
2018-05-31T23:33:31.390Z,88.10
2018-05-31T23:35:57.975Z,88.10
2018-05-31T23:38:24.933Z,87.70
2018-05-31T23:40:51.481Z,87.60
2018-05-31T23:43:18.093Z,87.60
2018-05-31T23:45:44.699Z,88.00
2018-05-31T23:48:11.301Z,87.40
2018-05-31T23:50:37.953Z,87.30
2018-05-31T23:53:04.593Z,87.40
2018-05-31T23:55:31.250Z,87.30
2018-05-31T23:57:57.861Z,87.20
